createdAt,value
2017-12-17T00:00:14.227Z,8.90
2017-12-17T00:02:41.693Z,4.37
2017-12-17T00:05:09.150Z,13.07
2017-12-17T00:07:36.616Z,2.97
2017-12-17T00:10:04.074Z,8.37
2017-12-17T00:12:31.528Z,6.10
2017-12-17T00:14:59.002Z,6.33
2017-12-17T00:17:26.467Z,13.33
2017-12-17T00:19:53.935Z,6.00
2017-12-17T00:22:21.394Z,4.83
2017-12-17T00:24:48.862Z,19.53
2017-12-17T00:27:16.552Z,6.10
2017-12-17T00:29:44.778Z,3.80
2017-12-17T00:32:12.228Z,6.80
2017-12-17T00:34:41.098Z,3.73
2017-12-17T00:37:09.223Z,3.27
2017-12-17T00:39:36.691Z,6.10
2017-12-17T00:42:05.623Z,3.77
2017-12-17T00:44:34.607Z,16.13
2017-12-17T00:47:02.079Z,16.43
2017-12-17T00:49:29.536Z,7.30
2017-12-17T00:51:56.996Z,8.67
2017-12-17T00:54:26.727Z,3.30
2017-12-17T00:56:54.968Z,9.57
2017-12-17T00:59:24.619Z,5.60
2017-12-17T01:01:53.983Z,8.67
2017-12-17T01:04:24.115Z,9.30
2017-12-17T01:06:51.645Z,9.70
2017-12-17T01:09:19.209Z,6.83
2017-12-17T01:11:47.711Z,8.13
2017-12-17T01:14:15.887Z,7.63
2017-12-17T01:16:45.564Z,2.40
2017-12-17T01:19:16.622Z,3.73
2017-12-17T01:21:44.256Z,7.33
2017-12-17T01:24:15.177Z,1.93
2017-12-17T01:26:44.072Z,2.43
2017-12-17T01:29:11.850Z,11.27
2017-12-17T01:31:39.478Z,8.70
2017-12-17T01:34:08.589Z,2.50
2017-12-17T01:36:39.324Z,13.07
2017-12-17T01:39:08.150Z,5.80
2017-12-17T01:41:35.603Z,5.23
2017-12-17T01:44:03.064Z,20.20
2017-12-17T01:46:30.534Z,19.63
2017-12-17T01:48:58.002Z,14.67
2017-12-17T01:51:25.467Z,7.77
2017-12-17T01:53:54.432Z,8.33
2017-12-17T01:56:21.896Z,11.43
2017-12-17T01:58:49.352Z,6.53
2017-12-17T02:01:16.823Z,19.33
2017-12-17T02:03:44.276Z,10.80
2017-12-17T02:06:11.739Z,8.97
2017-12-17T02:08:39.191Z,9.97
2017-12-17T02:11:06.658Z,30.47
2017-12-17T02:13:34.112Z,17.63
2017-12-17T02:16:01.571Z,6.00
2017-12-17T02:18:29.026Z,14.93
2017-12-17T02:20:56.487Z,7.20
2017-12-17T02:23:23.940Z,8.87
2017-12-17T02:25:51.400Z,9.47
2017-12-17T02:30:52.560Z,11.57
2017-12-17T02:33:20.012Z,7.30
2017-12-17T02:35:47.844Z,9.60
2017-12-17T02:38:17.050Z,11.90
2017-12-17T02:40:44.516Z,9.63
2017-12-17T02:43:11.972Z,8.87
2017-12-17T02:45:39.435Z,8.53
2017-12-17T02:48:07.659Z,11.97
2017-12-17T02:50:35.897Z,14.43
2017-12-17T02:53:03.347Z,7.10
2017-12-17T02:55:30.800Z,7.20
2017-12-17T02:57:58.281Z,15.70
2017-12-17T03:00:25.737Z,9.30
2017-12-17T03:02:53.216Z,14.23
2017-12-17T03:05:21.441Z,8.40
2017-12-17T03:07:48.907Z,14.27
2017-12-17T03:10:16.507Z,10.33
2017-12-17T03:12:44.735Z,11.90
2017-12-17T03:15:12.199Z,13.50
2017-12-17T03:17:39.670Z,6.67
2017-12-17T03:20:07.123Z,9.80
2017-12-17T03:22:34.608Z,11.60
2017-12-17T03:25:02.840Z,13.13
2017-12-17T03:27:30.304Z,13.43
2017-12-17T03:29:57.759Z,11.70
2017-12-17T03:32:25.220Z,8.47
2017-12-17T03:34:52.678Z,12.97
2017-12-17T03:37:20.140Z,4.13
2017-12-17T03:39:47.608Z,10.87
2017-12-17T03:42:15.075Z,12.03
2017-12-17T03:44:43.299Z,6.47
2017-12-17T03:47:10.765Z,8.80
2017-12-17T03:49:38.224Z,15.03
2017-12-17T03:52:05.689Z,8.93
2017-12-17T03:54:33.147Z,13.97
2017-12-17T03:57:00.618Z,14.70
2017-12-17T03:59:28.074Z,9.07
2017-12-17T04:01:55.540Z,11.00
2017-12-17T04:04:23.008Z,5.87
2017-12-17T04:06:51.280Z,10.27
2017-12-17T04:09:19.503Z,11.70
2017-12-17T04:11:46.955Z,8.20
2017-12-17T04:14:14.428Z,14.43
2017-12-17T04:16:41.892Z,14.20
2017-12-17T04:19:09.356Z,8.13
2017-12-17T04:21:36.817Z,7.43
2017-12-17T04:24:04.284Z,11.40
2017-12-17T04:26:31.774Z,5.13
2017-12-17T04:28:59.980Z,11.70
2017-12-17T04:31:27.755Z,15.53
2017-12-17T04:33:55.228Z,15.77
2017-12-17T04:36:22.685Z,13.77
2017-12-17T04:38:50.156Z,18.87
2017-12-17T04:41:17.615Z,20.80
2017-12-17T04:43:45.848Z,7.17
2017-12-17T04:46:13.309Z,11.57
2017-12-17T04:48:40.788Z,15.03
2017-12-17T04:51:08.239Z,22.50
2017-12-17T04:53:35.711Z,17.93
2017-12-17T04:56:03.168Z,8.50
2017-12-17T04:58:30.640Z,12.43
2017-12-17T05:00:58.857Z,8.37
2017-12-17T05:03:26.324Z,7.07
2017-12-17T05:05:53.784Z,9.97
2017-12-17T05:08:21.251Z,12.17
2017-12-17T05:10:49.679Z,16.00
2017-12-17T05:13:17.152Z,14.07
2017-12-17T05:15:44.604Z,19.77
2017-12-17T05:18:12.072Z,10.03
2017-12-17T05:20:39.527Z,16.77
2017-12-17T05:23:07.025Z,13.40
2017-12-17T05:25:34.483Z,22.70
2017-12-17T05:28:01.943Z,13.80
2017-12-17T05:30:29.403Z,7.57
2017-12-17T05:32:56.867Z,10.57
2017-12-17T05:35:24.332Z,6.47
2017-12-17T05:37:52.551Z,17.50
2017-12-17T05:40:20.023Z,8.07
2017-12-17T05:42:47.487Z,11.50
2017-12-17T05:45:14.956Z,14.43
2017-12-17T05:47:42.412Z,8.57
2017-12-17T05:50:09.880Z,22.37
2017-12-17T05:52:37.339Z,17.13
2017-12-17T05:55:04.803Z,9.80
2017-12-17T05:57:33.033Z,13.13
2017-12-17T06:00:00.497Z,13.13
2017-12-17T06:02:27.956Z,23.63
2017-12-17T06:04:55.423Z,13.27
2017-12-17T06:07:22.892Z,10.83
2017-12-17T06:09:50.363Z,17.00
2017-12-17T06:12:18.589Z,15.97
2017-12-17T06:14:46.059Z,14.70
2017-12-17T06:17:13.511Z,13.30
2017-12-17T06:19:41.016Z,13.70
2017-12-17T06:22:08.453Z,18.07
2017-12-17T06:24:35.968Z,17.90
2017-12-17T06:27:04.158Z,35.57
2017-12-17T06:29:31.633Z,14.70
2017-12-17T06:31:59.092Z,13.43
2017-12-17T06:34:26.564Z,16.63
2017-12-17T06:36:54.789Z,13.70
2017-12-17T06:39:22.246Z,8.93
2017-12-17T06:41:49.716Z,12.20
2017-12-17T06:44:17.176Z,14.33
2017-12-17T06:46:44.648Z,15.27
2017-12-17T06:49:12.112Z,10.13
2017-12-17T06:51:39.580Z,11.63
2017-12-17T06:54:07.804Z,14.00
2017-12-17T06:56:35.272Z,17.33
2017-12-17T06:59:02.723Z,12.80
2017-12-17T07:01:30.200Z,19.30
2017-12-17T07:03:57.656Z,12.13
2017-12-17T07:06:25.123Z,18.00
2017-12-17T07:08:52.588Z,17.57
2017-12-17T07:11:20.056Z,14.60
2017-12-17T07:13:49.484Z,16.10
2017-12-17T07:16:16.952Z,14.17
2017-12-17T07:18:44.412Z,12.10
2017-12-17T07:21:11.887Z,20.40
2017-12-17T07:23:39.356Z,19.63
2017-12-17T07:26:06.824Z,19.40
2017-12-17T07:28:34.289Z,19.23
2017-12-17T07:31:01.755Z,20.80
2017-12-17T07:33:29.980Z,38.50
2017-12-17T07:35:57.448Z,16.57
2017-12-17T07:38:24.904Z,31.13
2017-12-17T07:40:52.375Z,13.90
2017-12-17T07:43:19.828Z,23.03
2017-12-17T07:45:47.327Z,18.33
2017-12-17T07:48:14.760Z,16.63
2017-12-17T07:50:42.228Z,15.53
2017-12-17T07:53:10.456Z,14.43
2017-12-17T07:55:37.924Z,18.67
2017-12-17T07:58:05.388Z,18.40
2017-12-17T08:00:32.846Z,14.77
2017-12-17T08:03:00.320Z,17.40
2017-12-17T08:05:27.781Z,11.47
2017-12-17T08:07:55.248Z,15.87
2017-12-17T08:10:23.474Z,22.77
2017-12-17T08:12:50.947Z,20.97
2017-12-17T08:15:19.175Z,33.90
2017-12-17T08:17:46.647Z,11.60
2017-12-17T08:20:14.104Z,41.30
2017-12-17T08:22:41.580Z,28.97
2017-12-17T08:25:09.040Z,20.60
2017-12-17T08:27:36.507Z,15.63
2017-12-17T08:30:03.964Z,19.53
2017-12-17T08:32:31.431Z,24.20
2017-12-17T08:34:58.887Z,17.77
2017-12-17T08:37:26.363Z,24.10
2017-12-17T08:39:54.603Z,12.60
2017-12-17T08:42:22.063Z,38.73
2017-12-17T08:44:49.585Z,32.67
2017-12-17T08:47:17.044Z,14.30
2017-12-17T08:49:44.508Z,12.30
2017-12-17T08:52:11.985Z,16.17
2017-12-17T08:54:39.451Z,26.03
2017-12-17T08:57:06.925Z,43.70
2017-12-17T08:59:34.841Z,36.70
2017-12-17T09:02:02.312Z,38.23
2017-12-17T09:04:30.572Z,20.80
2017-12-17T09:06:58.052Z,12.10
2017-12-17T09:09:25.516Z,17.67
2017-12-17T09:11:52.980Z,14.43
2017-12-17T09:14:20.445Z,15.20
2017-12-17T09:16:47.902Z,14.67
2017-12-17T09:19:15.371Z,10.40
2017-12-17T09:21:42.829Z,20.70
2017-12-17T09:24:10.299Z,9.60
2017-12-17T09:26:38.519Z,14.97
2017-12-17T09:29:05.987Z,11.27
2017-12-17T09:31:34.257Z,12.77
2017-12-17T09:34:01.732Z,13.10
2017-12-17T09:36:29.184Z,13.37
2017-12-17T09:38:56.678Z,22.43
2017-12-17T09:41:24.121Z,10.90
2017-12-17T09:43:51.590Z,11.60
2017-12-17T09:46:20.612Z,11.50
2017-12-17T09:48:48.080Z,13.57
2017-12-17T09:51:15.535Z,13.77
2017-12-17T09:53:43.007Z,12.90
2017-12-17T09:56:10.469Z,10.80
2017-12-17T09:58:37.940Z,14.57
2017-12-17T10:01:05.396Z,11.33
2017-12-17T10:03:32.862Z,11.33
2017-12-17T10:06:00.325Z,17.73
2017-12-17T10:08:27.793Z,25.03
2017-12-17T10:10:56.018Z,9.20
2017-12-17T10:13:23.488Z,11.50
2017-12-17T10:15:50.948Z,11.00
2017-12-17T10:18:18.424Z,18.43
2017-12-17T10:20:45.890Z,12.63
2017-12-17T10:23:13.350Z,10.10
2017-12-17T10:25:40.812Z,7.43
2017-12-17T10:28:09.041Z,14.70
2017-12-17T10:30:36.504Z,9.60
2017-12-17T10:33:03.960Z,12.27
2017-12-17T10:35:31.431Z,10.43
2017-12-17T10:37:58.883Z,9.77
2017-12-17T10:40:26.346Z,8.20
2017-12-17T10:42:53.803Z,5.53
2017-12-17T10:45:21.274Z,6.53
2017-12-17T10:47:48.741Z,10.83
2017-12-17T10:50:16.976Z,16.30
2017-12-17T10:52:44.432Z,8.37
2017-12-17T10:55:11.903Z,7.37
2017-12-17T10:57:40.119Z,8.37
2017-12-17T11:00:07.598Z,8.60
2017-12-17T11:02:35.061Z,7.60
2017-12-17T11:05:02.529Z,8.73
2017-12-17T11:07:29.987Z,21.77
2017-12-17T11:09:57.464Z,10.03
2017-12-17T11:12:24.926Z,11.50
2017-12-17T11:14:52.383Z,7.40
2017-12-17T11:17:19.844Z,8.90
2017-12-17T11:19:47.322Z,15.33
2017-12-17T11:22:15.545Z,14.07
2017-12-17T11:24:43.016Z,15.40
2017-12-17T11:27:10.467Z,11.20
2017-12-17T11:29:37.949Z,12.70
2017-12-17T11:32:05.463Z,13.63
2017-12-17T11:34:32.931Z,10.00
2017-12-17T11:37:00.440Z,7.33
2017-12-17T11:39:27.851Z,8.77
2017-12-17T11:41:55.337Z,12.67
2017-12-17T11:44:22.791Z,17.83
2017-12-17T11:46:50.261Z,13.50
2017-12-17T11:49:18.484Z,16.07
2017-12-17T11:51:45.951Z,8.37
2017-12-17T11:54:13.408Z,11.20
2017-12-17T11:56:40.882Z,13.50
2017-12-17T11:59:08.344Z,21.33
2017-12-17T12:01:35.820Z,15.23
2017-12-17T12:04:04.039Z,10.27
2017-12-17T12:06:31.510Z,11.10
2017-12-17T12:08:59.311Z,9.73
2017-12-17T12:11:26.776Z,20.33
2017-12-17T12:13:54.233Z,22.57
2017-12-17T12:16:22.472Z,11.50
2017-12-17T12:18:49.928Z,15.53
2017-12-17T12:21:17.408Z,14.93
2017-12-17T12:23:44.866Z,11.83
2017-12-17T12:26:12.343Z,12.40
2017-12-17T12:28:40.564Z,20.47
2017-12-17T12:31:08.029Z,14.10
2017-12-17T12:33:35.490Z,15.60
2017-12-17T12:36:02.956Z,14.53
2017-12-17T12:38:30.415Z,10.27
2017-12-17T12:40:57.888Z,13.53
2017-12-17T12:43:26.112Z,15.80
2017-12-17T12:45:53.580Z,17.97
2017-12-17T12:48:21.033Z,16.93
2017-12-17T12:50:48.504Z,12.30
2017-12-17T12:53:15.984Z,15.10
2017-12-17T12:55:44.215Z,31.37
2017-12-17T12:58:11.689Z,16.13
2017-12-17T13:00:39.151Z,15.40
2017-12-17T13:03:06.619Z,10.70
2017-12-17T13:05:34.076Z,24.07
2017-12-17T13:08:01.555Z,12.70
2017-12-17T13:10:29.792Z,9.50
2017-12-17T13:12:57.257Z,23.70
2017-12-17T13:15:24.711Z,11.30
2017-12-17T13:17:52.181Z,17.83
2017-12-17T13:20:19.643Z,13.90
2017-12-17T13:22:47.120Z,10.80
2017-12-17T13:25:15.347Z,14.97
2017-12-17T13:27:42.824Z,13.27
2017-12-17T13:30:10.276Z,12.90
2017-12-17T13:32:37.747Z,20.63
2017-12-17T13:35:05.212Z,12.53
2017-12-17T13:37:33.447Z,13.17
2017-12-17T13:40:00.912Z,17.50
2017-12-17T13:42:28.388Z,14.30
2017-12-17T13:44:55.843Z,23.77
2017-12-17T13:47:23.315Z,21.13
2017-12-17T13:49:51.545Z,14.77
2017-12-17T13:52:19.015Z,15.20
2017-12-17T13:54:46.476Z,10.20
2017-12-17T13:57:13.975Z,17.50
2017-12-17T13:59:42.214Z,11.50
2017-12-17T14:02:09.675Z,18.03
2017-12-17T14:04:37.135Z,16.77
2017-12-17T14:07:04.603Z,26.90
2017-12-17T14:09:32.839Z,13.43
2017-12-17T14:12:00.300Z,14.47
2017-12-17T14:14:27.763Z,25.47
2017-12-17T14:16:55.224Z,20.63
2017-12-17T14:19:22.688Z,11.70
2017-12-17T14:21:50.148Z,19.37
2017-12-17T14:24:17.617Z,22.67
2017-12-17T14:26:45.072Z,16.10
2017-12-17T14:29:12.544Z,13.33
2017-12-17T14:31:40.776Z,15.50
2017-12-17T14:34:08.248Z,17.23
2017-12-17T14:36:35.699Z,14.87
2017-12-17T14:39:05.075Z,20.20
2017-12-17T14:41:32.539Z,20.87
2017-12-17T14:44:00.008Z,13.10
2017-12-17T14:46:27.476Z,13.10
2017-12-17T14:48:54.931Z,8.40
2017-12-17T14:51:22.391Z,17.73
2017-12-17T14:53:49.863Z,9.83
2017-12-17T14:56:17.328Z,27.57
2017-12-17T14:58:45.564Z,12.37
2017-12-17T15:01:13.023Z,20.20
2017-12-17T15:03:40.552Z,18.73
2017-12-17T15:06:07.966Z,15.17
2017-12-17T15:08:35.436Z,23.10
2017-12-17T15:11:03.664Z,15.40
2017-12-17T15:13:32.211Z,10.90
2017-12-17T15:15:59.684Z,10.37
2017-12-17T15:18:27.134Z,9.37
2017-12-17T15:20:54.605Z,13.97
2017-12-17T15:23:22.067Z,41.30
2017-12-17T15:25:49.535Z,12.70
2017-12-17T15:28:16.992Z,13.57
2017-12-17T15:30:44.464Z,14.67
2017-12-17T15:33:11.927Z,12.80
2017-12-17T15:35:39.396Z,16.03
2017-12-17T15:38:07.631Z,14.27
2017-12-17T15:40:35.101Z,18.33
2017-12-17T15:43:02.557Z,12.53
2017-12-17T15:45:30.023Z,33.03
2017-12-17T15:47:57.482Z,15.17
2017-12-17T15:50:24.960Z,24.03
2017-12-17T15:52:53.179Z,15.40
2017-12-17T15:55:20.651Z,18.17
2017-12-17T15:57:48.107Z,37.70
2017-12-17T16:00:15.581Z,17.07
2017-12-17T16:02:43.100Z,18.83
2017-12-17T16:05:10.572Z,17.93
2017-12-17T16:07:38.031Z,16.60
2017-12-17T16:10:05.504Z,24.70
2017-12-17T16:12:32.968Z,17.77
2017-12-17T16:15:05.371Z,20.33
2017-12-17T16:17:33.613Z,20.20
2017-12-17T16:20:01.089Z,25.87
2017-12-17T16:22:29.316Z,22.03
2017-12-17T16:24:56.789Z,26.37
2017-12-17T16:27:24.271Z,16.93
2017-12-17T16:29:51.744Z,20.13
2017-12-17T16:32:19.971Z,18.83
2017-12-17T16:34:47.431Z,22.03
2017-12-17T16:37:14.899Z,26.73
2017-12-17T16:39:42.356Z,41.60
2017-12-17T16:42:09.828Z,16.50
2017-12-17T16:44:37.280Z,19.00
2017-12-17T16:47:04.754Z,23.20
2017-12-17T16:49:32.212Z,26.73
2017-12-17T16:52:00.451Z,25.57
2017-12-17T16:54:27.912Z,18.17
2017-12-17T16:56:55.385Z,27.63
2017-12-17T16:59:22.845Z,26.30
2017-12-17T17:01:50.315Z,22.97
2017-12-17T17:04:18.540Z,15.03
2017-12-17T17:06:46.017Z,18.27
2017-12-17T17:09:13.472Z,25.87
2017-12-17T17:11:40.939Z,21.47
2017-12-17T17:14:08.403Z,18.17
2017-12-17T17:16:35.873Z,20.80
2017-12-17T17:19:04.095Z,24.33
2017-12-17T17:21:31.568Z,20.87
2017-12-17T17:23:59.024Z,21.23
2017-12-17T17:26:26.503Z,16.37
2017-12-17T17:28:53.961Z,26.33
2017-12-17T17:31:21.429Z,18.37
2017-12-17T17:33:48.896Z,34.20
2017-12-17T17:36:17.132Z,19.80
2017-12-17T17:38:44.592Z,24.97
2017-12-17T17:41:12.072Z,33.47
2017-12-17T17:43:39.535Z,27.03
2017-12-17T17:46:07.779Z,24.60
2017-12-17T17:48:35.234Z,30.60
2017-12-17T17:51:02.712Z,26.17
2017-12-17T17:53:30.172Z,17.00
2017-12-17T17:55:57.640Z,17.50
2017-12-17T17:58:25.108Z,37.63
2017-12-17T18:00:53.335Z,20.03
2017-12-17T18:03:20.808Z,20.60
2017-12-17T18:05:48.264Z,35.23
2017-12-17T18:08:15.736Z,25.73
2017-12-17T18:10:43.193Z,13.47
2017-12-17T18:13:11.470Z,22.77
2017-12-17T18:15:38.928Z,17.57
2017-12-17T18:18:06.396Z,21.50
2017-12-17T18:20:34.624Z,31.37
2017-12-17T18:23:02.103Z,29.23
2017-12-17T18:25:29.567Z,38.63
2017-12-17T18:27:57.048Z,30.10
2017-12-17T18:30:25.278Z,20.10
2017-12-17T18:32:52.742Z,24.87
2017-12-17T18:35:20.210Z,49.33
2017-12-17T18:37:47.682Z,18.50
2017-12-17T18:40:15.905Z,22.40
2017-12-17T18:42:43.376Z,23.00
2017-12-17T18:45:10.840Z,29.60
2017-12-17T18:47:38.309Z,33.40
2017-12-17T18:50:05.781Z,36.37
2017-12-17T18:52:34.020Z,35.93
2017-12-17T18:55:01.483Z,27.97
2017-12-17T18:57:28.961Z,59.07
2017-12-17T18:59:56.415Z,28.73
2017-12-17T19:02:23.904Z,35.53
2017-12-17T19:04:51.369Z,36.83
2017-12-17T19:07:18.836Z,47.70
2017-12-17T19:09:46.311Z,38.80
2017-12-17T19:12:13.771Z,41.20
2017-12-17T19:14:41.243Z,43.03
2017-12-17T19:17:08.705Z,47.03
2017-12-17T19:19:36.175Z,52.17
2017-12-17T19:22:03.638Z,50.97
2017-12-17T19:24:31.112Z,44.17
2017-12-17T19:27:00.021Z,32.87
2017-12-17T19:29:27.488Z,40.23
2017-12-17T19:31:54.952Z,44.70
2017-12-17T19:34:22.424Z,58.73
2017-12-17T19:36:49.884Z,42.90
2017-12-17T19:39:17.355Z,46.17
2017-12-17T19:41:44.819Z,45.47
2017-12-17T19:44:12.301Z,73.77
2017-12-17T19:46:40.519Z,39.53
2017-12-17T19:49:07.995Z,47.47
2017-12-17T19:51:35.456Z,61.20
2017-12-17T19:54:02.932Z,46.23
2017-12-17T19:56:31.155Z,71.47
2017-12-17T19:58:58.638Z,43.57
2017-12-17T20:01:26.103Z,52.20
2017-12-17T20:03:53.584Z,36.10
2017-12-17T20:06:21.812Z,57.30
2017-12-17T20:08:49.287Z,30.10
2017-12-17T20:11:16.754Z,41.50
2017-12-17T20:13:44.224Z,40.83
2017-12-17T20:16:12.455Z,37.87
2017-12-17T20:18:39.939Z,43.53
2017-12-17T20:21:07.411Z,34.67
2017-12-17T20:23:34.871Z,29.70
2017-12-17T20:26:03.115Z,34.47
2017-12-17T20:28:30.575Z,28.07
2017-12-17T20:30:58.048Z,61.10
2017-12-17T20:33:25.512Z,28.67
2017-12-17T20:35:53.753Z,28.77
2017-12-17T20:38:21.213Z,21.23
2017-12-17T20:40:48.690Z,34.70
2017-12-17T20:43:16.153Z,38.47
2017-12-17T20:45:43.624Z,35.57
2017-12-17T20:48:11.860Z,34.67
2017-12-17T20:50:39.327Z,14.23
2017-12-17T20:53:06.791Z,36.43
2017-12-17T20:55:34.278Z,27.90
2017-12-17T20:58:02.507Z,26.00
2017-12-17T21:00:29.980Z,26.57
2017-12-17T21:02:57.435Z,15.33
2017-12-17T21:05:24.903Z,22.70
2017-12-17T21:07:52.367Z,27.80
2017-12-17T21:10:20.608Z,30.30
2017-12-17T21:12:48.068Z,27.70
2017-12-17T21:15:15.540Z,29.10
2017-12-17T21:17:42.999Z,28.00
2017-12-17T21:20:10.476Z,25.20
2017-12-17T21:22:38.708Z,34.67
2017-12-17T21:25:06.180Z,35.07
2017-12-17T21:27:33.642Z,31.37
2017-12-17T21:30:01.120Z,17.93
2017-12-17T21:32:29.347Z,23.67
2017-12-17T21:34:57.596Z,20.80
2017-12-17T21:37:25.051Z,33.60
2017-12-17T21:39:52.516Z,31.30
2017-12-17T21:42:19.984Z,36.57
2017-12-17T21:44:47.452Z,27.87
2017-12-17T21:47:14.923Z,30.63
2017-12-17T21:49:42.388Z,28.47
2017-12-17T21:52:09.872Z,28.60
2017-12-17T21:54:38.099Z,22.80
2017-12-17T21:57:05.576Z,25.23
2017-12-17T21:59:33.036Z,29.20
2017-12-17T22:02:00.512Z,23.07
2017-12-17T22:04:28.735Z,23.47
2017-12-17T22:06:56.203Z,20.43
2017-12-17T22:09:23.665Z,15.07
2017-12-17T22:11:51.136Z,29.50
2017-12-17T22:14:18.591Z,15.73
2017-12-17T22:16:46.073Z,29.50
2017-12-17T22:19:14.298Z,27.83
2017-12-17T22:21:41.772Z,34.73
2017-12-17T22:24:09.232Z,25.37
2017-12-17T22:26:36.710Z,30.43
2017-12-17T22:29:04.172Z,17.97
2017-12-17T22:31:32.411Z,24.80
2017-12-17T22:33:59.871Z,23.17
2017-12-17T22:36:27.346Z,26.83
2017-12-17T22:38:54.812Z,30.23
2017-12-17T22:41:22.284Z,18.10
2017-12-17T22:43:50.511Z,33.47
2017-12-17T22:46:17.984Z,23.47
2017-12-17T22:48:45.447Z,29.37
2017-12-17T22:51:12.907Z,23.03
2017-12-17T22:53:40.384Z,21.83
2017-12-17T22:56:08.624Z,23.47
2017-12-17T22:58:36.091Z,33.23
2017-12-17T23:01:03.560Z,23.43
2017-12-17T23:03:31.024Z,20.00
2017-12-17T23:05:58.483Z,27.47
2017-12-17T23:08:25.957Z,27.73
2017-12-17T23:10:53.415Z,29.80
2017-12-17T23:13:20.887Z,25.13
2017-12-17T23:15:48.352Z,30.60
2017-12-17T23:18:15.828Z,26.40
2017-12-17T23:20:43.286Z,27.27
2017-12-17T23:23:10.755Z,23.23
2017-12-17T23:25:38.224Z,31.13
2017-12-17T23:28:05.691Z,27.00
2017-12-17T23:30:37.772Z,30.63
2017-12-17T23:33:06.011Z,26.43
2017-12-17T23:35:33.463Z,12.87
2017-12-17T23:38:00.940Z,24.67
2017-12-17T23:40:28.395Z,25.10
2017-12-17T23:42:55.872Z,28.60
2017-12-17T23:45:24.100Z,13.80
2017-12-17T23:47:51.572Z,19.33
2017-12-17T23:50:19.032Z,24.00
2017-12-17T23:52:46.507Z,33.10
2017-12-17T23:55:14.767Z,14.90
2017-12-17T23:57:42.222Z,23.73
